sensor_id;sensor_type;location;lat;lon;timestamp;temperature;humidity
20208;DHT22;10263;48.716;8.760;2022-07-22T00:00:29;18.10;99.90
20208;DHT22;10263;48.716;8.760;2022-07-22T00:02:56;18.00;99.90
20208;DHT22;10263;48.716;8.760;2022-07-22T00:05:23;18.00;99.90
20208;DHT22;10263;48.716;8.760;2022-07-22T00:07:50;18.00;99.90
20208;DHT22;10263;48.716;8.760;2022-07-22T00:10:17;18.00;99.90
20208;DHT22;10263;48.716;8.760;2022-07-22T00:12:44;18.00;99.90
20208;DHT22;10263;48.716;8.760;2022-07-22T00:15:10;17.90;99.90
20208;DHT22;10263;48.716;8.760;2022-07-22T00:17:40;17.80;99.90
20208;DHT22;10263;48.716;8.760;2022-07-22T00:20:08;17.80;99.90
20208;DHT22;10263;48.716;8.760;2022-07-22T00:22:35;17.80;99.90
20208;DHT22;10263;48.716;8.760;2022-07-22T00:25:02;17.70;99.90
20208;DHT22;10263;48.716;8.760;2022-07-22T00:27:30;17.70;99.90
20208;DHT22;10263;48.716;8.760;2022-07-22T00:29:57;17.70;99.90
20208;DHT22;10263;48.716;8.760;2022-07-22T00:32:24;17.70;99.90
20208;DHT22;10263;48.716;8.760;2022-07-22T00:34:52;17.60;99.90
20208;DHT22;10263;48.716;8.760;2022-07-22T00:37:19;17.60;99.90
20208;DHT22;10263;48.716;8.760;2022-07-22T00:39:46;17.60;99.90
20208;DHT22;10263;48.716;8.760;2022-07-22T00:42:13;17.50;99.90
20208;DHT22;10263;48.716;8.760;2022-07-22T00:44:40;17.50;99.90
20208;DHT22;10263;48.716;8.760;2022-07-22T00:47:07;17.40;99.90
20208;DHT22;10263;48.716;8.760;2022-07-22T00:49:34;17.40;99.90
20208;DHT22;10263;48.716;8.760;2022-07-22T00:52:02;17.30;99.90
20208;DHT22;10263;48.716;8.760;2022-07-22T00:54:30;17.40;99.90
20208;DHT22;10263;48.716;8.760;2022-07-22T00:56:57;17.30;99.90
20208;DHT22;10263;48.716;8.760;2022-07-22T00:59:24;17.30;99.90
20208;DHT22;10263;48.716;8.760;2022-07-22T01:01:50;17.20;99.90
20208;DHT22;10263;48.716;8.760;2022-07-22T01:04:17;17.20;99.90
20208;DHT22;10263;48.716;8.760;2022-07-22T01:06:45;17.20;99.90
20208;DHT22;10263;48.716;8.760;2022-07-22T01:09:14;17.10;99.90
20208;DHT22;10263;48.716;8.760;2022-07-22T01:11:41;17.10;99.90
20208;DHT22;10263;48.716;8.760;2022-07-22T01:14:08;17.10;99.90
20208;DHT22;10263;48.716;8.760;2022-07-22T01:16:35;17.00;99.90
20208;DHT22;10263;48.716;8.760;2022-07-22T01:19:03;17.00;99.90
20208;DHT22;10263;48.716;8.760;2022-07-22T01:21:31;16.90;99.90
20208;DHT22;10263;48.716;8.760;2022-07-22T01:24:00;16.90;99.90
20208;DHT22;10263;48.716;8.760;2022-07-22T01:26:27;16.90;99.90
20208;DHT22;10263;48.716;8.760;2022-07-22T01:28:54;16.90;99.90
20208;DHT22;10263;48.716;8.760;2022-07-22T01:31:21;16.90;99.90
20208;DHT22;10263;48.716;8.760;2022-07-22T01:33:48;16.80;99.90
20208;DHT22;10263;48.716;8.760;2022-07-22T01:36:15;16.80;99.90
20208;DHT22;10263;48.716;8.760;2022-07-22T01:38:44;16.80;99.90
20208;DHT22;10263;48.716;8.760;2022-07-22T01:41:11;16.80;99.90
20208;DHT22;10263;48.716;8.760;2022-07-22T01:43:38;16.80;99.90
20208;DHT22;10263;48.716;8.760;2022-07-22T01:46:06;16.80;99.90
20208;DHT22;10263;48.716;8.760;2022-07-22T01:48:35;16.80;99.90
20208;DHT22;10263;48.716;8.760;2022-07-22T01:51:03;16.70;99.90
20208;DHT22;10263;48.716;8.760;2022-07-22T01:53:29;16.70;99.90
20208;DHT22;10263;48.716;8.760;2022-07-22T01:55:58;16.60;99.90
20208;DHT22;10263;48.716;8.760;2022-07-22T01:58:25;16.70;99.90
20208;DHT22;10263;48.716;8.760;2022-07-22T02:00:53;16.60;99.90
20208;DHT22;10263;48.716;8.760;2022-07-22T02:03:20;16.60;99.90
20208;DHT22;10263;48.716;8.760;2022-07-22T02:05:47;16.60;99.90
20208;DHT22;10263;48.716;8.760;2022-07-22T02:08:23;16.70;99.90
20208;DHT22;10263;48.716;8.760;2022-07-22T02:11:09;16.50;99.90
20208;DHT22;10263;48.716;8.760;2022-07-22T02:13:47;16.50;99.90
20208;DHT22;10263;48.716;8.760;2022-07-22T02:16:15;16.50;99.90
20208;DHT22;10263;48.716;8.760;2022-07-22T02:18:42;16.50;99.90
20208;DHT22;10263;48.716;8.760;2022-07-22T02:21:09;16.40;99.90
20208;DHT22;10263;48.716;8.760;2022-07-22T02:23:36;16.40;99.90
20208;DHT22;10263;48.716;8.760;2022-07-22T02:26:04;16.40;99.90
20208;DHT22;10263;48.716;8.760;2022-07-22T02:28:32;16.30;99.90
20208;DHT22;10263;48.716;8.760;2022-07-22T02:30:59;16.30;99.90
20208;DHT22;10263;48.716;8.760;2022-07-22T02:33:26;16.20;99.90
20208;DHT22;10263;48.716;8.760;2022-07-22T02:35:55;16.20;99.90
20208;DHT22;10263;48.716;8.760;2022-07-22T02:38:22;16.20;99.90
20208;DHT22;10263;48.716;8.760;2022-07-22T02:40:49;16.10;99.90
20208;DHT22;10263;48.716;8.760;2022-07-22T02:43:16;16.20;99.90
20208;DHT22;10263;48.716;8.760;2022-07-22T02:45:44;16.10;99.90
20208;DHT22;10263;48.716;8.760;2022-07-22T02:48:11;16.10;99.90
20208;DHT22;10263;48.716;8.760;2022-07-22T02:50:44;16.00;99.90
20208;DHT22;10263;48.716;8.760;2022-07-22T02:53:11;16.00;99.90
20208;DHT22;10263;48.716;8.760;2022-07-22T02:55:38;16.00;99.90
20208;DHT22;10263;48.716;8.760;2022-07-22T02:58:06;16.00;99.90
20208;DHT22;10263;48.716;8.760;2022-07-22T03:00:34;17.90;99.90
20208;DHT22;10263;48.716;8.760;2022-07-22T03:03:04;16.00;99.90
20208;DHT22;10263;48.716;8.760;2022-07-22T03:05:33;16.00;99.90
20208;DHT22;10263;48.716;8.760;2022-07-22T03:08:26;15.90;99.90
20208;DHT22;10263;48.716;8.760;2022-07-22T03:10:54;15.90;99.90
20208;DHT22;10263;48.716;8.760;2022-07-22T03:13:21;15.80;99.90
20208;DHT22;10263;48.716;8.760;2022-07-22T03:15:48;15.80;99.90
20208;DHT22;10263;48.716;8.760;2022-07-22T03:18:18;15.80;99.90
20208;DHT22;10263;48.716;8.760;2022-07-22T03:20:46;15.70;99.90
20208;DHT22;10263;48.716;8.760;2022-07-22T03:23:13;15.80;99.90
20208;DHT22;10263;48.716;8.760;2022-07-22T03:25:40;15.70;99.90
20208;DHT22;10263;48.716;8.760;2022-07-22T03:28:07;15.70;99.90
20208;DHT22;10263;48.716;8.760;2022-07-22T03:30:35;15.70;99.90
20208;DHT22;10263;48.716;8.760;2022-07-22T03:33:03;15.70;99.90
20208;DHT22;10263;48.716;8.760;2022-07-22T03:35:35;15.70;99.90
20208;DHT22;10263;48.716;8.760;2022-07-22T03:38:02;15.60;99.90
20208;DHT22;10263;48.716;8.760;2022-07-22T03:40:29;15.70;99.90
20208;DHT22;10263;48.716;8.760;2022-07-22T03:42:57;15.60;99.90
20208;DHT22;10263;48.716;8.760;2022-07-22T03:45:24;15.60;99.90
20208;DHT22;10263;48.716;8.760;2022-07-22T03:47:51;15.60;99.90
20208;DHT22;10263;48.716;8.760;2022-07-22T03:50:21;15.60;99.90
20208;DHT22;10263;48.716;8.760;2022-07-22T03:52:49;15.50;99.90
20208;DHT22;10263;48.716;8.760;2022-07-22T03:55:16;15.50;99.90
20208;DHT22;10263;48.716;8.760;2022-07-22T03:57:47;15.50;99.90
20208;DHT22;10263;48.716;8.760;2022-07-22T04:00:23;15.50;99.90
20208;DHT22;10263;48.716;8.760;2022-07-22T04:02:50;15.50;99.90
20208;DHT22;10263;48.716;8.760;2022-07-22T04:05:33;15.50;99.90
20208;DHT22;10263;48.716;8.760;2022-07-22T04:08:02;15.50;99.90
20208;DHT22;10263;48.716;8.760;2022-07-22T04:10:30;15.40;99.90
20208;DHT22;10263;48.716;8.760;2022-07-22T04:12:57;15.40;99.90
20208;DHT22;10263;48.716;8.760;2022-07-22T04:15:34;15.50;99.90
20208;DHT22;10263;48.716;8.760;2022-07-22T04:18:01;15.40;99.90
20208;DHT22;10263;48.716;8.760;2022-07-22T04:20:28;15.40;99.90
20208;DHT22;10263;48.716;8.760;2022-07-22T04:23:27;15.40;99.90
20208;DHT22;10263;48.716;8.760;2022-07-22T04:26:06;15.40;99.90
20208;DHT22;10263;48.716;8.760;2022-07-22T04:28:34;15.40;99.90
20208;DHT22;10263;48.716;8.760;2022-07-22T04:31:01;15.40;99.90
20208;DHT22;10263;48.716;8.760;2022-07-22T04:33:28;15.40;99.90
20208;DHT22;10263;48.716;8.760;2022-07-22T04:35:55;15.40;99.90
20208;DHT22;10263;48.716;8.760;2022-07-22T04:38:22;15.40;99.90
20208;DHT22;10263;48.716;8.760;2022-07-22T04:41:03;15.40;99.90
20208;DHT22;10263;48.716;8.760;2022-07-22T04:43:30;15.40;99.90
20208;DHT22;10263;48.716;8.760;2022-07-22T04:45:57;15.40;99.90
20208;DHT22;10263;48.716;8.760;2022-07-22T04:48:28;15.40;99.90
20208;DHT22;10263;48.716;8.760;2022-07-22T04:50:58;15.40;99.90
20208;DHT22;10263;48.716;8.760;2022-07-22T04:53:25;15.50;99.90
20208;DHT22;10263;48.716;8.760;2022-07-22T04:55:52;15.40;99.90
20208;DHT22;10263;48.716;8.760;2022-07-22T04:58:20;15.50;99.90
20208;DHT22;10263;48.716;8.760;2022-07-22T05:00:47;15.50;99.90
20208;DHT22;10263;48.716;8.760;2022-07-22T05:03:15;15.50;99.90
20208;DHT22;10263;48.716;8.760;2022-07-22T05:05:43;15.50;99.90
20208;DHT22;10263;48.716;8.760;2022-07-22T05:08:11;15.60;99.90
20208;DHT22;10263;48.716;8.760;2022-07-22T05:10:39;15.50;99.90
20208;DHT22;10263;48.716;8.760;2022-07-22T05:13:06;15.60;99.90
20208;DHT22;10263;48.716;8.760;2022-07-22T05:15:35;15.60;99.90
20208;DHT22;10263;48.716;8.760;2022-07-22T05:18:02;15.70;99.90
20208;DHT22;10263;48.716;8.760;2022-07-22T05:20:31;15.70;99.90
20208;DHT22;10263;48.716;8.760;2022-07-22T05:22:58;15.70;99.90
20208;DHT22;10263;48.716;8.760;2022-07-22T05:25:28;15.80;99.90
20208;DHT22;10263;48.716;8.760;2022-07-22T05:27:55;15.80;99.90
20208;DHT22;10263;48.716;8.760;2022-07-22T05:30:27;15.80;99.90
20208;DHT22;10263;48.716;8.760;2022-07-22T05:32:56;15.90;99.90
20208;DHT22;10263;48.716;8.760;2022-07-22T05:35:46;16.00;99.90
20208;DHT22;10263;48.716;8.760;2022-07-22T05:38:13;16.00;99.90
20208;DHT22;10263;48.716;8.760;2022-07-22T05:40:40;16.10;99.90
20208;DHT22;10263;48.716;8.760;2022-07-22T05:43:07;16.20;99.90
20208;DHT22;10263;48.716;8.760;2022-07-22T05:45:34;16.30;99.90
20208;DHT22;10263;48.716;8.760;2022-07-22T05:48:02;16.40;99.90
20208;DHT22;10263;48.716;8.760;2022-07-22T05:50:31;16.40;99.90
20208;DHT22;10263;48.716;8.760;2022-07-22T05:52:58;16.50;99.90
20208;DHT22;10263;48.716;8.760;2022-07-22T05:55:25;16.70;99.90
20208;DHT22;10263;48.716;8.760;2022-07-22T05:57:52;16.80;99.90
20208;DHT22;10263;48.716;8.760;2022-07-22T06:00:19;16.90;99.90
20208;DHT22;10263;48.716;8.760;2022-07-22T06:02:46;17.10;99.90
20208;DHT22;10263;48.716;8.760;2022-07-22T06:05:19;17.20;99.90
20208;DHT22;10263;48.716;8.760;2022-07-22T06:07:46;17.40;99.90
20208;DHT22;10263;48.716;8.760;2022-07-22T06:10:24;17.50;99.90
20208;DHT22;10263;48.716;8.760;2022-07-22T06:12:51;17.70;99.90
20208;DHT22;10263;48.716;8.760;2022-07-22T06:15:18;17.90;99.90
20208;DHT22;10263;48.716;8.760;2022-07-22T06:17:45;18.10;99.90
20208;DHT22;10263;48.716;8.760;2022-07-22T06:20:12;18.30;99.90
20208;DHT22;10263;48.716;8.760;2022-07-22T06:22:40;18.50;99.90
20208;DHT22;10263;48.716;8.760;2022-07-22T06:25:08;18.70;99.90
20208;DHT22;10263;48.716;8.760;2022-07-22T06:27:35;18.90;99.90
20208;DHT22;10263;48.716;8.760;2022-07-22T06:30:05;19.20;99.90
20208;DHT22;10263;48.716;8.760;2022-07-22T06:32:34;19.40;99.90
20208;DHT22;10263;48.716;8.760;2022-07-22T06:35:01;19.60;99.90
20208;DHT22;10263;48.716;8.760;2022-07-22T06:37:28;19.90;99.90
20208;DHT22;10263;48.716;8.760;2022-07-22T06:39:57;20.50;99.90
20208;DHT22;10263;48.716;8.760;2022-07-22T06:42:32;20.60;99.90
20208;DHT22;10263;48.716;8.760;2022-07-22T06:45:24;21.00;99.90
20208;DHT22;10263;48.716;8.760;2022-07-22T06:47:54;23.10;99.90
20208;DHT22;10263;48.716;8.760;2022-07-22T06:50:22;22.10;99.90
20208;DHT22;10263;48.716;8.760;2022-07-22T06:52:51;22.70;99.90
20208;DHT22;10263;48.716;8.760;2022-07-22T06:55:20;23.20;99.90
20208;DHT22;10263;48.716;8.760;2022-07-22T06:57:57;23.80;99.90
20208;DHT22;10263;48.716;8.760;2022-07-22T07:00:24;24.20;99.90
20208;DHT22;10263;48.716;8.760;2022-07-22T07:03:17;24.70;99.90
20208;DHT22;10263;48.716;8.760;2022-07-22T07:08:20;25.50;99.90
20208;DHT22;10263;48.716;8.760;2022-07-22T07:10:49;25.80;99.90
20208;DHT22;10263;48.716;8.760;2022-07-22T07:13:17;26.30;99.90
20208;DHT22;10263;48.716;8.760;2022-07-22T07:15:46;26.60;99.90
20208;DHT22;10263;48.716;8.760;2022-07-22T07:18:14;26.80;99.90
20208;DHT22;10263;48.716;8.760;2022-07-22T07:20:41;27.10;99.90
20208;DHT22;10263;48.716;8.760;2022-07-22T07:23:09;27.30;99.90
20208;DHT22;10263;48.716;8.760;2022-07-22T07:25:42;27.40;99.90
20208;DHT22;10263;48.716;8.760;2022-07-22T07:28:10;27.50;99.90
20208;DHT22;10263;48.716;8.760;2022-07-22T07:31:00;27.60;99.90
20208;DHT22;10263;48.716;8.760;2022-07-22T07:33:27;27.70;99.90
20208;DHT22;10263;48.716;8.760;2022-07-22T07:35:53;27.80;99.90
20208;DHT22;10263;48.716;8.760;2022-07-22T07:38:30;27.80;99.90
20208;DHT22;10263;48.716;8.760;2022-07-22T07:40:58;28.00;99.50
20208;DHT22;10263;48.716;8.760;2022-07-22T07:43:26;28.20;99.40
20208;DHT22;10263;48.716;8.760;2022-07-22T07:45:53;28.30;99.00
20208;DHT22;10263;48.716;8.760;2022-07-22T07:48:20;28.30;98.10
20208;DHT22;10263;48.716;8.760;2022-07-22T07:50:46;28.30;98.60
20208;DHT22;10263;48.716;8.760;2022-07-22T07:53:14;28.40;98.90
20208;DHT22;10263;48.716;8.760;2022-07-22T07:55:42;28.50;99.00
20208;DHT22;10263;48.716;8.760;2022-07-22T07:58:10;28.50;98.30
20208;DHT22;10263;48.716;8.760;2022-07-22T08:00:39;28.50;97.20
20208;DHT22;10263;48.716;8.760;2022-07-22T08:03:08;28.30;98.30
20208;DHT22;10263;48.716;8.760;2022-07-22T08:05:36;28.30;98.30
20208;DHT22;10263;48.716;8.760;2022-07-22T08:08:05;28.30;98.50
20208;DHT22;10263;48.716;8.760;2022-07-22T08:10:33;28.30;98.50
20208;DHT22;10263;48.716;8.760;2022-07-22T08:13:19;28.20;97.50
20208;DHT22;10263;48.716;8.760;2022-07-22T08:16:06;28.00;97.00
20208;DHT22;10263;48.716;8.760;2022-07-22T08:18:33;27.80;97.00
20208;DHT22;10263;48.716;8.760;2022-07-22T08:21:00;27.60;97.30
20208;DHT22;10263;48.716;8.760;2022-07-22T08:23:39;27.40;97.80
20208;DHT22;10263;48.716;8.760;2022-07-22T08:26:06;27.20;97.80
20208;DHT22;10263;48.716;8.760;2022-07-22T08:28:33;27.10;98.60
20208;DHT22;10263;48.716;8.760;2022-07-22T08:30:59;27.10;99.00
20208;DHT22;10263;48.716;8.760;2022-07-22T08:33:27;27.20;98.60
20208;DHT22;10263;48.716;8.760;2022-07-22T08:35:54;27.20;98.60
20208;DHT22;10263;48.716;8.760;2022-07-22T08:38:21;27.30;97.80
20208;DHT22;10263;48.716;8.760;2022-07-22T08:40:48;27.30;97.00
20208;DHT22;10263;48.716;8.760;2022-07-22T08:43:15;27.20;97.70
20208;DHT22;10263;48.716;8.760;2022-07-22T08:45:42;27.00;97.10
20208;DHT22;10263;48.716;8.760;2022-07-22T08:48:09;27.00;97.50
20208;DHT22;10263;48.716;8.760;2022-07-22T08:51:01;27.00;97.90
20208;DHT22;10263;48.716;8.760;2022-07-22T08:53:37;27.10;97.80
20208;DHT22;10263;48.716;8.760;2022-07-22T08:56:12;27.10;98.20
20208;DHT22;10263;48.716;8.760;2022-07-22T08:58:39;27.20;98.70
20208;DHT22;10263;48.716;8.760;2022-07-22T09:01:09;27.20;97.60
20208;DHT22;10263;48.716;8.760;2022-07-22T09:03:47;27.40;97.60
20208;DHT22;10263;48.716;8.760;2022-07-22T09:06:17;27.60;96.40
20208;DHT22;10263;48.716;8.760;2022-07-22T09:08:56;27.60;97.00
20208;DHT22;10263;48.716;8.760;2022-07-22T09:11:41;27.80;97.60
20208;DHT22;10263;48.716;8.760;2022-07-22T09:14:27;27.90;96.70
20208;DHT22;10263;48.716;8.760;2022-07-22T09:17:31;28.00;94.60
20208;DHT22;10263;48.716;8.760;2022-07-22T09:20:39;28.10;94.40
20208;DHT22;10263;48.716;8.760;2022-07-22T09:23:44;28.20;95.00
20208;DHT22;10263;48.716;8.760;2022-07-22T09:26:29;28.30;93.80
20208;DHT22;10263;48.716;8.760;2022-07-22T09:29:22;28.40;93.80
20208;DHT22;10263;48.716;8.760;2022-07-22T09:32:08;28.40;93.50
20208;DHT22;10263;48.716;8.760;2022-07-22T09:35:02;28.50;92.80
20208;DHT22;10263;48.716;8.760;2022-07-22T09:37:33;28.50;92.30
20208;DHT22;10263;48.716;8.760;2022-07-22T09:40:13;28.60;92.50
20208;DHT22;10263;48.716;8.760;2022-07-22T09:42:45;28.60;93.20
20208;DHT22;10263;48.716;8.760;2022-07-22T09:45:12;28.60;93.50
20208;DHT22;10263;48.716;8.760;2022-07-22T09:47:42;28.80;93.20
20208;DHT22;10263;48.716;8.760;2022-07-22T09:50:31;28.90;91.30
20208;DHT22;10263;48.716;8.760;2022-07-22T09:53:19;29.20;90.40
20208;DHT22;10263;48.716;8.760;2022-07-22T09:56:00;29.20;91.20
20208;DHT22;10263;48.716;8.760;2022-07-22T09:58:28;29.30;90.50
20208;DHT22;10263;48.716;8.760;2022-07-22T10:01:03;29.20;90.10
20208;DHT22;10263;48.716;8.760;2022-07-22T10:03:32;29.40;90.10
20208;DHT22;10263;48.716;8.760;2022-07-22T10:06:03;29.50;89.40
20208;DHT22;10263;48.716;8.760;2022-07-22T10:08:32;29.60;88.00
20208;DHT22;10263;48.716;8.760;2022-07-22T10:11:04;29.60;90.30
20208;DHT22;10263;48.716;8.760;2022-07-22T10:13:31;29.70;86.90
20208;DHT22;10263;48.716;8.760;2022-07-22T10:16:01;29.70;86.90
20208;DHT22;10263;48.716;8.760;2022-07-22T10:18:30;29.80;87.40
20208;DHT22;10263;48.716;8.760;2022-07-22T10:21:02;29.90;87.30
20208;DHT22;10263;48.716;8.760;2022-07-22T10:23:29;30.00;85.70
20208;DHT22;10263;48.716;8.760;2022-07-22T10:25:57;30.00;86.50
20208;DHT22;10263;48.716;8.760;2022-07-22T10:28:30;30.00;87.40
20208;DHT22;10263;48.716;8.760;2022-07-22T10:31:19;29.90;85.10
20208;DHT22;10263;48.716;8.760;2022-07-22T10:33:49;29.90;85.80
20208;DHT22;10263;48.716;8.760;2022-07-22T10:36:30;29.80;87.50
20208;DHT22;10263;48.716;8.760;2022-07-22T10:39:09;30.10;87.00
20208;DHT22;10263;48.716;8.760;2022-07-22T10:41:37;30.10;87.10
20208;DHT22;10263;48.716;8.760;2022-07-22T10:44:06;30.00;84.90
20208;DHT22;10263;48.716;8.760;2022-07-22T10:46:50;30.00;86.30
20208;DHT22;10263;48.716;8.760;2022-07-22T10:49:20;30.10;84.90
20208;DHT22;10263;48.716;8.760;2022-07-22T10:52:11;30.10;86.30
20208;DHT22;10263;48.716;8.760;2022-07-22T10:55:16;30.10;86.30
20208;DHT22;10263;48.716;8.760;2022-07-22T10:57:43;30.20;84.60
20208;DHT22;10263;48.716;8.760;2022-07-22T11:00:12;30.40;84.20
20208;DHT22;10263;48.716;8.760;2022-07-22T11:02:39;30.50;85.40
20208;DHT22;10263;48.716;8.760;2022-07-22T11:05:07;30.50;84.10
20208;DHT22;10263;48.716;8.760;2022-07-22T11:07:34;30.60;82.00
20208;DHT22;10263;48.716;8.760;2022-07-22T11:10:12;30.70;82.00
20208;DHT22;10263;48.716;8.760;2022-07-22T11:12:39;30.70;81.00
20208;DHT22;10263;48.716;8.760;2022-07-22T11:15:07;30.70;81.40
20208;DHT22;10263;48.716;8.760;2022-07-22T11:17:36;30.60;81.60
20208;DHT22;10263;48.716;8.760;2022-07-22T11:20:05;30.50;81.30
20208;DHT22;10263;48.716;8.760;2022-07-22T11:22:32;30.50;81.50
20208;DHT22;10263;48.716;8.760;2022-07-22T11:25:00;30.40;81.70
20208;DHT22;10263;48.716;8.760;2022-07-22T11:29:55;30.40;80.80
20208;DHT22;10263;48.716;8.760;2022-07-22T11:32:24;30.50;78.20
20208;DHT22;10263;48.716;8.760;2022-07-22T11:34:54;30.50;77.40
20208;DHT22;10263;48.716;8.760;2022-07-22T11:37:22;30.60;78.10
20208;DHT22;10263;48.716;8.760;2022-07-22T11:39:49;30.50;76.50
20208;DHT22;10263;48.716;8.760;2022-07-22T11:42:16;30.40;80.00
20208;DHT22;10263;48.716;8.760;2022-07-22T11:44:43;30.50;78.40
20208;DHT22;10263;48.716;8.760;2022-07-22T11:47:10;30.60;79.80
20208;DHT22;10263;48.716;8.760;2022-07-22T11:49:39;30.60;78.70
20208;DHT22;10263;48.716;8.760;2022-07-22T11:52:09;30.70;78.70
20208;DHT22;10263;48.716;8.760;2022-07-22T11:54:37;30.70;79.30
20208;DHT22;10263;48.716;8.760;2022-07-22T11:57:04;30.50;78.20
20208;DHT22;10263;48.716;8.760;2022-07-22T11:59:32;30.30;78.50
20208;DHT22;10263;48.716;8.760;2022-07-22T12:01:59;30.30;81.70
20208;DHT22;10263;48.716;8.760;2022-07-22T12:04:27;30.50;81.40
20208;DHT22;10263;48.716;8.760;2022-07-22T12:06:57;30.60;79.50
20208;DHT22;10263;48.716;8.760;2022-07-22T12:09:29;30.70;79.40
20208;DHT22;10263;48.716;8.760;2022-07-22T12:11:57;30.80;77.50
20208;DHT22;10263;48.716;8.760;2022-07-22T12:14:26;30.80;78.90
20208;DHT22;10263;48.716;8.760;2022-07-22T12:16:55;30.90;79.60
20208;DHT22;10263;48.716;8.760;2022-07-22T12:19:22;30.90;78.50
20208;DHT22;10263;48.716;8.760;2022-07-22T12:21:53;30.90;79.10
20208;DHT22;10263;48.716;8.760;2022-07-22T12:24:30;31.00;81.00
20208;DHT22;10263;48.716;8.760;2022-07-22T12:26:59;31.00;76.90
20208;DHT22;10263;48.716;8.760;2022-07-22T12:29:28;31.10;76.00
20208;DHT22;10263;48.716;8.760;2022-07-22T12:31:59;31.00;78.50
20208;DHT22;10263;48.716;8.760;2022-07-22T12:34:38;31.10;75.20
20208;DHT22;10263;48.716;8.760;2022-07-22T12:37:16;31.10;77.00
20208;DHT22;10263;48.716;8.760;2022-07-22T12:39:59;31.20;70.80
20208;DHT22;10263;48.716;8.760;2022-07-22T12:42:28;31.20;70.80
20208;DHT22;10263;48.716;8.760;2022-07-22T12:45:01;31.30;71.10
20208;DHT22;10263;48.716;8.760;2022-07-22T12:47:40;31.40;72.60
20208;DHT22;10263;48.716;8.760;2022-07-22T12:50:21;31.50;69.40
20208;DHT22;10263;48.716;8.760;2022-07-22T12:52:48;31.40;68.70
20208;DHT22;10263;48.716;8.760;2022-07-22T12:55:17;31.50;68.00
20208;DHT22;10263;48.716;8.760;2022-07-22T12:57:43;31.60;69.90
20208;DHT22;10263;48.716;8.760;2022-07-22T13:00:15;31.70;66.80
20208;DHT22;10263;48.716;8.760;2022-07-22T13:02:42;31.60;68.80
20208;DHT22;10263;48.716;8.760;2022-07-22T13:05:08;31.70;67.40
20208;DHT22;10263;48.716;8.760;2022-07-22T13:07:35;31.70;68.50
20208;DHT22;10263;48.716;8.760;2022-07-22T13:10:03;31.80;71.40
20208;DHT22;10263;48.716;8.760;2022-07-22T13:12:31;32.00;69.90
20208;DHT22;10263;48.716;8.760;2022-07-22T13:14:58;32.10;69.90
20208;DHT22;10263;48.716;8.760;2022-07-22T13:17:24;32.30;69.00
20208;DHT22;10263;48.716;8.760;2022-07-22T13:19:51;32.30;66.40
20208;DHT22;10263;48.716;8.760;2022-07-22T13:22:18;32.30;66.60
20208;DHT22;10263;48.716;8.760;2022-07-22T13:24:46;32.20;66.10
20208;DHT22;10263;48.716;8.760;2022-07-22T13:27:12;32.20;63.90
20208;DHT22;10263;48.716;8.760;2022-07-22T13:29:41;32.20;66.90
20208;DHT22;10263;48.716;8.760;2022-07-22T13:34:34;32.10;65.40
20208;DHT22;10263;48.716;8.760;2022-07-22T13:37:01;32.20;63.90
20208;DHT22;10263;48.716;8.760;2022-07-22T13:39:28;32.20;67.60
20208;DHT22;10263;48.716;8.760;2022-07-22T13:41:55;32.20;68.50
20208;DHT22;10263;48.716;8.760;2022-07-22T13:44:22;32.40;64.10
20208;DHT22;10263;48.716;8.760;2022-07-22T13:46:50;32.40;64.10
20208;DHT22;10263;48.716;8.760;2022-07-22T13:49:16;32.50;64.20
20208;DHT22;10263;48.716;8.760;2022-07-22T13:51:43;32.40;63.50
20208;DHT22;10263;48.716;8.760;2022-07-22T13:54:10;32.30;64.00
20208;DHT22;10263;48.716;8.760;2022-07-22T13:56:37;32.30;62.20
20208;DHT22;10263;48.716;8.760;2022-07-22T13:59:04;32.10;63.20
20208;DHT22;10263;48.716;8.760;2022-07-22T14:01:30;32.00;63.80
20208;DHT22;10263;48.716;8.760;2022-07-22T14:03:58;31.90;65.20
20208;DHT22;10263;48.716;8.760;2022-07-22T14:06:27;32.00;64.50
20208;DHT22;10263;48.716;8.760;2022-07-22T14:08:54;32.10;62.80
20208;DHT22;10263;48.716;8.760;2022-07-22T14:11:21;32.00;63.80
20208;DHT22;10263;48.716;8.760;2022-07-22T14:13:48;32.00;63.00
20208;DHT22;10263;48.716;8.760;2022-07-22T14:16:14;29.90;62.80
20208;DHT22;10263;48.716;8.760;2022-07-22T14:19:00;31.90;64.40
20208;DHT22;10263;48.716;8.760;2022-07-22T14:21:27;32.00;62.80
20208;DHT22;10263;48.716;8.760;2022-07-22T14:23:54;31.90;62.00
20208;DHT22;10263;48.716;8.760;2022-07-22T14:26:21;31.80;63.60
20208;DHT22;10263;48.716;8.760;2022-07-22T14:28:48;31.70;63.00
20208;DHT22;10263;48.716;8.760;2022-07-22T14:31:15;31.70;63.50
20208;DHT22;10263;48.716;8.760;2022-07-22T14:33:42;31.60;63.40
20208;DHT22;10263;48.716;8.760;2022-07-22T14:36:10;31.60;66.80
20208;DHT22;10263;48.716;8.760;2022-07-22T14:38:37;31.60;64.20
20208;DHT22;10263;48.716;8.760;2022-07-22T14:41:04;31.60;68.60
20208;DHT22;10263;48.716;8.760;2022-07-22T14:43:33;31.70;64.60
20208;DHT22;10263;48.716;8.760;2022-07-22T14:45:59;31.70;65.40
20208;DHT22;10263;48.716;8.760;2022-07-22T14:48:27;31.80;65.20
20208;DHT22;10263;48.716;8.760;2022-07-22T14:50:54;31.80;64.10
20208;DHT22;10263;48.716;8.760;2022-07-22T14:53:22;31.90;62.60
20208;DHT22;10263;48.716;8.760;2022-07-22T14:55:49;31.80;62.60
20208;DHT22;10263;48.716;8.760;2022-07-22T14:58:16;31.80;63.10
20208;DHT22;10263;48.716;8.760;2022-07-22T15:00:43;31.70;63.50
20208;DHT22;10263;48.716;8.760;2022-07-22T15:03:10;31.70;63.70
20208;DHT22;10263;48.716;8.760;2022-07-22T15:05:37;31.60;62.70
20208;DHT22;10263;48.716;8.760;2022-07-22T15:08:06;31.60;63.50
20208;DHT22;10263;48.716;8.760;2022-07-22T15:10:35;31.50;65.50
20208;DHT22;10263;48.716;8.760;2022-07-22T15:13:02;31.60;64.30
20208;DHT22;10263;48.716;8.760;2022-07-22T15:15:29;31.50;63.60
20208;DHT22;10263;48.716;8.760;2022-07-22T15:17:55;31.20;65.00
20208;DHT22;10263;48.716;8.760;2022-07-22T15:20:24;31.20;65.80
20208;DHT22;10263;48.716;8.760;2022-07-22T15:22:51;31.00;65.70
20208;DHT22;10263;48.716;8.760;2022-07-22T15:25:19;31.00;66.20
20208;DHT22;10263;48.716;8.760;2022-07-22T15:27:48;30.90;70.30
20208;DHT22;10263;48.716;8.760;2022-07-22T15:30:15;30.80;67.10
20208;DHT22;10263;48.716;8.760;2022-07-22T15:32:42;30.80;68.00
20208;DHT22;10263;48.716;8.760;2022-07-22T15:35:09;30.80;68.00
20208;DHT22;10263;48.716;8.760;2022-07-22T15:37:36;30.80;69.00
20208;DHT22;10263;48.716;8.760;2022-07-22T15:40:05;30.90;67.30
20208;DHT22;10263;48.716;8.760;2022-07-22T15:42:32;30.90;70.90
20208;DHT22;10263;48.716;8.760;2022-07-22T15:45:00;31.00;68.10
20208;DHT22;10263;48.716;8.760;2022-07-22T15:47:27;31.00;68.80
20208;DHT22;10263;48.716;8.760;2022-07-22T15:49:54;31.10;70.60
20208;DHT22;10263;48.716;8.760;2022-07-22T15:52:20;31.30;72.10
20208;DHT22;10263;48.716;8.760;2022-07-22T15:54:47;31.40;73.30